Terminal Aerodrome Forecast
Issued by NWS

Home | Current Version | Previous Version | Text Only | Print | Product List | Glossary On
Versions: 1 2 3 4 5 6 7 8 9 10 11 12 13 14 15 16
000
FTUS42 KMLB 202300
TAFFPR
TAF
KFPR 202332Z 2100/2124 25004KT P6SM VCSH SCT025 SCT060 BKN120
     FM210600 26003KT P6SM SCT015 SCT060 BKN120
     FM211400 25005KT P6SM SCT020 BKN100
     FM211800 10007KT P6SM SCT025 BKN120 PROB30 2118/2121 5SM SHRA
      BKN030=

USA.gov is the U.S. government's official web portal to all federal, state and local government web resources and services.